createdAt,value
2019-04-29T03:55:16.521Z,1.30
2019-04-29T04:01:47.350Z,1.30
2019-04-29T04:04:36.013Z,1.47
2019-04-29T04:07:23.238Z,1.33
2019-04-29T04:10:49.428Z,1.67
2019-04-29T04:13:37.494Z,0.97
2019-04-29T04:16:09.043Z,3.13
2019-04-29T04:19:49.874Z,2.83
2019-04-29T04:22:19.582Z,3.23
2019-04-29T04:24:52.213Z,2.03
2019-04-29T04:27:21.941Z,3.47
2019-04-29T04:29:51.672Z,7.47
2019-04-29T04:32:21.390Z,8.90
2019-04-29T04:34:51.329Z,3.67
2019-04-29T04:37:21.150Z,9.53
2019-04-29T04:39:50.858Z,6.53
2019-04-29T04:42:20.631Z,8.23
2019-04-29T04:44:50.512Z,8.67
2019-04-29T04:47:21.057Z,5.93
2019-04-29T04:49:50.792Z,8.13
2019-04-29T04:52:20.598Z,6.13
2019-04-29T04:54:52.387Z,3.00
2019-04-29T04:57:22.226Z,5.93
2019-04-29T04:59:52.023Z,5.53
2019-04-29T05:02:23.363Z,2.80
2019-04-29T05:04:53.089Z,2.53
2019-04-29T05:07:24.300Z,7.57
2019-04-29T05:09:54.061Z,3.13
2019-04-29T05:12:23.826Z,2.90
2019-04-29T05:14:53.564Z,6.73
2019-04-29T05:17:23.358Z,5.90
2019-04-29T05:19:53.196Z,4.77
2019-04-29T05:22:23.032Z,2.97
2019-04-29T05:24:52.861Z,4.57
2019-04-29T05:27:23.681Z,4.63
2019-04-29T05:29:53.415Z,3.57
2019-04-29T05:32:23.140Z,2.27
2019-04-29T05:34:55.144Z,4.10
2019-04-29T05:37:34.057Z,3.70
2019-04-29T05:40:04.086Z,2.20
2019-04-29T05:42:33.801Z,2.43
2019-04-29T05:45:17.318Z,5.57
2019-04-29T05:47:52.311Z,2.70
2019-04-29T05:50:39.464Z,2.77
2019-04-29T05:53:28.197Z,2.93
2019-04-29T05:55:58.312Z,3.40
2019-04-29T05:58:28.097Z,1.30
2019-04-29T06:01:02.108Z,1.77
2019-04-29T06:03:33.627Z,1.40
2019-04-29T06:06:03.918Z,2.23
2019-04-29T06:08:34.499Z,1.30
2019-04-29T06:11:05.184Z,2.00
2019-04-29T06:13:34.922Z,3.53
2019-04-29T06:16:04.757Z,2.40
2019-04-29T06:18:34.657Z,1.30
2019-04-29T06:21:09.348Z,1.27
2019-04-29T06:23:36.605Z,3.70
2019-04-29T06:26:06.566Z,3.20
2019-04-29T06:28:36.702Z,1.70
2019-04-29T06:31:06.549Z,1.53
2019-04-29T06:33:36.363Z,1.47
2019-04-29T06:36:06.228Z,2.90
2019-04-29T06:38:36.018Z,1.90
2019-04-29T06:41:09.616Z,1.93
2019-04-29T06:43:37.188Z,4.10
2019-04-29T06:46:06.949Z,1.07
2019-04-29T06:48:36.943Z,1.80
2019-04-29T06:51:06.774Z,3.17
2019-04-29T06:53:36.484Z,1.53
2019-04-29T06:56:09.030Z,1.23
2019-04-29T06:58:38.481Z,1.80
2019-04-29T07:01:08.309Z,1.50
2019-04-29T07:03:38.076Z,2.30
2019-04-29T07:06:07.786Z,1.43
2019-04-29T07:08:37.673Z,1.10
2019-04-29T07:11:07.498Z,1.77
2019-04-29T07:13:37.320Z,1.23
2019-04-29T07:16:07.031Z,2.50
2019-04-29T07:18:40.327Z,2.70
2019-04-29T07:21:11.921Z,1.20
2019-04-29T07:23:52.228Z,2.33
2019-04-29T07:26:22.177Z,2.00
2019-04-29T07:28:53.510Z,1.17
2019-04-29T07:31:23.385Z,0.80
2019-04-29T07:33:53.572Z,1.57
2019-04-29T07:36:24.669Z,0.60
2019-04-29T07:38:56.737Z,1.13
2019-04-29T07:41:25.759Z,0.87
2019-04-29T07:43:55.482Z,0.57
2019-04-29T07:46:57.067Z,0.87
2019-04-29T07:49:19.026Z,1.50
2019-04-29T07:51:48.849Z,1.07
2019-04-29T07:54:18.550Z,0.83
2019-04-29T07:57:08.257Z,1.53
2019-04-29T07:59:38.449Z,1.47
2019-04-29T08:02:09.488Z,2.30
2019-04-29T08:04:40.456Z,1.10
2019-04-29T08:07:10.498Z,0.60
2019-04-29T08:09:44.138Z,1.27
2019-04-29T08:12:12.069Z,0.80
2019-04-29T08:14:41.780Z,0.97
2019-04-29T08:17:12.532Z,0.87
2019-04-29T08:19:42.499Z,0.80
2019-04-29T08:22:16.399Z,0.80
2019-04-29T08:24:45.960Z,0.80
2019-04-29T08:27:15.805Z,0.53
2019-04-29T08:29:45.719Z,0.87
2019-04-29T08:32:15.456Z,0.90
2019-04-29T08:34:45.147Z,0.70
2019-04-29T08:37:14.937Z,0.50
2019-04-29T08:39:44.731Z,0.77
2019-04-29T08:42:17.981Z,0.87
2019-04-29T08:45:21.913Z,1.10
2019-04-29T08:47:51.821Z,0.73
2019-04-29T08:50:21.600Z,0.63
2019-04-29T08:52:51.343Z,0.50
2019-04-29T08:55:21.040Z,1.40
2019-04-29T08:57:50.832Z,0.80
2019-04-29T09:00:20.715Z,1.10
2019-04-29T09:02:50.462Z,0.87
2019-04-29T09:05:20.194Z,0.53
2019-04-29T09:07:52.672Z,0.63
2019-04-29T09:10:21.351Z,0.63
2019-04-29T09:12:51.092Z,0.70
2019-04-29T09:15:20.942Z,0.50
2019-04-29T09:17:50.805Z,0.33
2019-04-29T09:20:20.652Z,0.70
2019-04-29T09:22:55.142Z,0.63
2019-04-29T09:25:34.900Z,1.10
2019-04-29T09:28:08.568Z,0.90
2019-04-29T09:30:38.786Z,0.67
2019-04-29T09:33:13.066Z,1.17
2019-04-29T09:35:41.812Z,0.60
2019-04-29T09:38:11.594Z,0.80
2019-04-29T09:40:46.743Z,0.40
2019-04-29T09:43:38.197Z,0.60
2019-04-29T09:46:18.466Z,0.70
2019-04-29T09:48:46.870Z,1.13
2019-04-29T09:51:18.073Z,0.47
2019-04-29T09:53:48.002Z,0.50
2019-04-29T09:56:17.793Z,0.37
2019-04-29T09:58:47.665Z,0.70
2019-04-29T10:01:39.088Z,0.40
2019-04-29T10:04:39.637Z,1.13
2019-04-29T10:07:10.969Z,0.40
2019-04-29T10:09:40.717Z,0.50
2019-04-29T10:12:10.565Z,0.60
2019-04-29T10:14:40.296Z,1.00
2019-04-29T10:17:21.220Z,0.67
2019-04-29T10:20:09.781Z,0.67
2019-04-29T10:22:39.946Z,1.13
2019-04-29T10:25:09.780Z,0.87
2019-04-29T10:27:39.541Z,0.40
2019-04-29T10:30:09.996Z,0.70
2019-04-29T10:32:42.517Z,0.40
2019-04-29T10:35:12.501Z,0.67
2019-04-29T10:37:42.469Z,0.63
2019-04-29T10:40:31.096Z,0.40
2019-04-29T10:43:15.537Z,0.30
2019-04-29T10:46:00.980Z,0.67
2019-04-29T10:48:39.306Z,0.63
2019-04-29T10:51:10.001Z,0.30
2019-04-29T10:53:39.770Z,0.30
2019-04-29T10:56:09.474Z,0.67
2019-04-29T10:58:40.213Z,0.50
2019-04-29T11:02:25.633Z,0.73
2019-04-29T11:04:58.198Z,0.67
2019-04-29T11:07:37.990Z,0.50
2019-04-29T11:10:25.221Z,0.80
2019-04-29T11:12:51.657Z,1.43
2019-04-29T11:15:23.321Z,0.27
2019-04-29T11:17:59.213Z,0.30
2019-04-29T11:20:24.500Z,0.83
2019-04-29T11:23:22.527Z,0.33
2019-04-29T11:26:17.737Z,0.73
2019-04-29T11:28:51.219Z,0.30
2019-04-29T11:31:20.045Z,0.53
2019-04-29T11:34:18.116Z,0.60
2019-04-29T11:36:48.111Z,0.57
2019-04-29T11:39:17.921Z,0.50
2019-04-29T11:41:50.054Z,0.30
2019-04-29T11:44:21.956Z,0.57
2019-04-29T11:46:51.084Z,0.40
2019-04-29T11:49:24.677Z,0.60
2019-04-29T11:52:09.226Z,0.30
2019-04-29T11:54:25.964Z,0.60
2019-04-29T11:56:55.746Z,0.30
2019-04-29T11:59:44.945Z,0.30
2019-04-29T12:02:45.175Z,0.60
2019-04-29T12:05:29.969Z,0.30
2019-04-29T12:08:03.017Z,0.70
2019-04-29T12:10:31.364Z,0.43
2019-04-29T12:13:02.702Z,0.53
2019-04-29T12:15:51.292Z,0.53
2019-04-29T12:18:24.446Z,0.50
2019-04-29T12:21:03.341Z,0.43
2019-04-29T12:23:33.124Z,0.70
2019-04-29T12:26:04.715Z,0.50
2019-04-29T12:28:37.918Z,0.43
2019-04-29T12:31:13.306Z,0.67
2019-04-29T12:33:48.875Z,1.00
2019-04-29T12:36:18.788Z,0.30
2019-04-29T12:39:05.976Z,0.30
2019-04-29T12:41:53.756Z,0.50
2019-04-29T12:44:35.481Z,0.77
2019-04-29T12:47:29.261Z,0.60
2019-04-29T12:49:59.083Z,0.67
2019-04-29T12:52:28.969Z,0.40
2019-04-29T12:55:03.072Z,0.97
2019-04-29T12:57:30.146Z,0.43
2019-04-29T12:59:59.973Z,1.03
2019-04-29T13:03:12.536Z,0.30
2019-04-29T13:06:09.469Z,0.67
2019-04-29T13:08:45.186Z,0.40
2019-04-29T13:11:19.183Z,0.53
2019-04-29T13:13:46.574Z,0.30
2019-04-29T13:16:41.071Z,0.53
2019-04-29T13:19:25.008Z,0.40
2019-04-29T13:21:53.814Z,0.30
2019-04-29T13:24:25.094Z,0.30
2019-04-29T13:26:55.010Z,0.37
2019-04-29T13:29:27.277Z,0.27
2019-04-29T13:31:56.094Z,0.33
2019-04-29T13:34:34.018Z,0.40
2019-04-29T13:37:12.252Z,0.30
2019-04-29T13:39:39.977Z,0.30
2019-04-29T13:42:09.127Z,0.40
2019-04-29T13:44:42.514Z,0.40
2019-04-29T13:47:50.216Z,0.40
2019-04-29T13:50:39.325Z,0.40
2019-04-29T13:53:01.765Z,0.87
2019-04-29T13:55:47.684Z,0.40
2019-04-29T13:58:02.911Z,0.47
2019-04-29T14:00:45.428Z,0.83
2019-04-29T14:03:20.034Z,0.40
2019-04-29T14:06:03.353Z,0.90
2019-04-29T14:08:24.284Z,0.90
2019-04-29T14:11:11.922Z,0.60
2019-04-29T14:13:43.173Z,0.50
2019-04-29T14:16:13.352Z,0.50
2019-04-29T14:18:43.662Z,1.07
2019-04-29T14:21:14.693Z,0.43
2019-04-29T14:24:03.538Z,0.40
2019-04-29T14:26:36.977Z,0.40
2019-04-29T14:29:05.006Z,0.70
2019-04-29T14:31:34.961Z,0.43
2019-04-29T14:34:10.375Z,0.50
2019-04-29T14:36:40.154Z,0.80
2019-04-29T14:39:13.065Z,0.40
2019-04-29T14:41:45.031Z,0.47
2019-04-29T14:44:42.733Z,0.67
2019-04-29T14:47:24.821Z,0.40
2019-04-29T14:49:58.104Z,0.40
2019-04-29T14:52:27.828Z,0.43
2019-04-29T14:54:57.839Z,0.60
2019-04-29T14:57:38.216Z,0.40
2019-04-29T15:00:23.759Z,0.30
2019-04-29T15:02:55.864Z,0.30
2019-04-29T15:05:28.152Z,0.57
2019-04-29T15:07:57.959Z,0.40
2019-04-29T15:10:31.232Z,0.40
2019-04-29T15:13:19.315Z,0.57
2019-04-29T15:16:14.091Z,1.17
2019-04-29T15:18:50.319Z,0.30
2019-04-29T15:21:32.669Z,0.40
2019-04-29T15:24:00.257Z,1.33
2019-04-29T15:26:30.197Z,0.27
2019-04-29T15:29:00.013Z,4.67
2019-04-29T15:31:29.845Z,0.97
2019-04-29T15:33:59.598Z,2.07
2019-04-29T15:36:30.654Z,1.87
2019-04-29T15:39:09.642Z,2.07
2019-04-29T15:41:33.189Z,2.17
2019-04-29T15:44:08.284Z,3.37
2019-04-29T15:46:56.254Z,1.80
2019-04-29T15:49:27.634Z,1.33
2019-04-29T15:51:57.370Z,5.40
2019-04-29T15:54:27.128Z,2.17
2019-04-29T15:56:56.982Z,5.37
2019-04-29T15:59:26.719Z,6.03
2019-04-29T16:01:59.099Z,2.97
2019-04-29T16:04:33.654Z,4.27
2019-04-29T16:07:22.389Z,6.60
2019-04-29T16:10:09.548Z,2.90
2019-04-29T16:12:51.078Z,3.13
2019-04-29T16:15:17.344Z,3.03
2019-04-29T16:17:47.681Z,3.40
2019-04-29T16:20:17.403Z,5.90
2019-04-29T16:22:47.154Z,3.47
2019-04-29T16:25:16.887Z,3.43
2019-04-29T16:27:52.976Z,1.33
2019-04-29T16:30:31.764Z,2.10
2019-04-29T16:32:58.491Z,3.47
2019-04-29T16:35:34.427Z,2.10
2019-04-29T16:38:05.548Z,1.83
2019-04-29T16:40:38.615Z,0.70
2019-04-29T16:43:10.545Z,0.93
2019-04-29T16:46:05.504Z,3.00
2019-04-29T16:48:35.385Z,1.67
2019-04-29T16:51:13.509Z,1.53
2019-04-29T16:53:36.590Z,1.67
2019-04-29T16:56:06.349Z,1.50
2019-04-29T16:58:36.204Z,1.27
2019-04-29T17:01:06.033Z,1.63
2019-04-29T17:03:35.769Z,0.80
2019-04-29T17:06:05.633Z,2.83
2019-04-29T17:09:09.906Z,0.97
2019-04-29T17:11:39.796Z,4.63
2019-04-29T17:14:12.512Z,2.90
2019-04-29T17:16:41.055Z,3.47
2019-04-29T17:19:10.898Z,3.70
2019-04-29T17:21:40.649Z,3.33
2019-04-29T17:24:10.384Z,3.67
2019-04-29T17:27:00.322Z,3.90
2019-04-29T17:29:49.591Z,3.33
2019-04-29T17:32:48.463Z,5.13
2019-04-29T17:35:21.617Z,0.50
2019-04-29T17:37:50.025Z,2.17
2019-04-29T17:40:19.940Z,5.00
2019-04-29T17:42:53.988Z,1.70
2019-04-29T17:45:31.668Z,1.60
2019-04-29T17:48:18.291Z,2.13
2019-04-29T17:50:50.173Z,1.80
2019-04-29T17:53:30.681Z,0.37
2019-04-29T17:56:07.110Z,3.43
2019-04-29T17:58:51.686Z,3.87
2019-04-29T18:01:42.810Z,4.67
2019-04-29T18:04:29.701Z,4.43
2019-04-29T18:07:25.206Z,4.30
2019-04-29T18:10:09.631Z,6.03
2019-04-29T18:12:41.245Z,9.47
2019-04-29T18:15:17.660Z,8.40
2019-04-29T18:17:45.480Z,8.40
2019-04-29T18:20:33.451Z,21.57
2019-04-29T18:23:20.474Z,16.53
2019-04-29T18:26:14.908Z,9.00
2019-04-29T18:28:45.788Z,11.73
2019-04-29T18:31:15.869Z,7.93
2019-04-29T18:33:45.618Z,8.20
2019-04-29T18:36:23.519Z,7.63
2019-04-29T18:38:49.983Z,9.33
2019-04-29T18:41:24.491Z,7.73
2019-04-29T18:43:49.858Z,3.27
2019-04-29T18:46:38.731Z,8.67
2019-04-29T18:49:08.564Z,9.00
2019-04-29T18:51:39.197Z,7.40
2019-04-29T18:54:09.345Z,5.07
2019-04-29T18:56:39.340Z,9.43
2019-04-29T18:59:09.174Z,6.37
2019-04-29T19:01:38.919Z,4.30
2019-04-29T19:04:29.749Z,4.93
2019-04-29T19:07:02.447Z,5.07
2019-04-29T19:09:35.900Z,5.37
2019-04-29T19:12:05.767Z,5.37
2019-04-29T19:14:35.547Z,3.00
2019-04-29T19:17:05.367Z,2.17
2019-04-29T19:19:39.074Z,3.30
2019-04-29T19:22:09.292Z,4.93
2019-04-29T19:24:38.181Z,5.53
2019-04-29T19:27:10.038Z,3.67
2019-04-29T19:29:43.249Z,6.43
2019-04-29T19:32:11.153Z,2.20
2019-04-29T19:34:43.410Z,1.97
2019-04-29T19:37:32.488Z,2.10
2019-04-29T19:40:04.755Z,2.93
2019-04-29T19:42:35.910Z,1.90
2019-04-29T19:45:12.705Z,3.80
2019-04-29T19:47:37.128Z,3.67
2019-04-29T19:50:07.262Z,5.00
2019-04-29T19:52:36.977Z,4.00
2019-04-29T19:55:07.006Z,1.17
2019-04-29T19:57:42.144Z,3.03
2019-04-29T20:00:08.895Z,6.47
2019-04-29T20:02:45.429Z,3.10
2019-04-29T20:05:18.967Z,2.90
2019-04-29T20:07:51.227Z,3.97
2019-04-29T20:10:22.288Z,2.50
2019-04-29T20:12:54.434Z,2.67
2019-04-29T20:15:25.931Z,3.23
2019-04-29T20:18:14.617Z,2.83
2019-04-29T20:20:51.160Z,1.90
2019-04-29T20:23:26.104Z,1.27
2019-04-29T20:25:52.256Z,1.97
2019-04-29T20:28:22.232Z,2.20
2019-04-29T20:30:56.995Z,1.70
2019-04-29T20:33:23.614Z,2.57
2019-04-29T20:35:53.332Z,2.77
2019-04-29T20:38:25.328Z,3.17
2019-04-29T20:40:55.414Z,2.53
2019-04-29T20:43:28.549Z,1.70
2019-04-29T20:45:58.129Z,1.50
2019-04-29T20:48:28.048Z,1.83
2019-04-29T20:50:57.762Z,1.37
2019-04-29T20:53:36.018Z,1.17
2019-04-29T20:56:11.888Z,2.27
2019-04-29T20:58:37.414Z,3.47
2019-04-29T21:01:11.257Z,1.70
2019-04-29T21:03:45.373Z,2.37
2019-04-29T21:06:12.297Z,0.97
2019-04-29T21:08:45.019Z,1.50
2019-04-29T21:11:21.057Z,1.10
2019-04-29T21:14:33.805Z,1.50
2019-04-29T21:17:02.263Z,0.97
2019-04-29T21:19:31.124Z,1.23
2019-04-29T21:22:00.834Z,1.93
2019-04-29T21:24:30.506Z,1.77
2019-04-29T21:27:00.193Z,2.33
2019-04-29T21:29:29.870Z,1.93
2019-04-29T21:32:01.648Z,2.57
2019-04-29T21:34:49.841Z,1.53
2019-04-29T21:37:31.012Z,0.73
2019-04-29T21:40:18.729Z,1.47
2019-04-29T21:42:52.048Z,1.23
2019-04-29T21:45:21.741Z,1.10
2019-04-29T21:47:53.440Z,0.80
2019-04-29T21:50:27.143Z,1.30
2019-04-29T21:52:55.295Z,2.60
2019-04-29T21:55:29.243Z,1.03
2019-04-29T21:57:58.853Z,0.50
2019-04-29T22:00:28.707Z,1.53
2019-04-29T22:02:59.051Z,0.67
2019-04-29T22:05:28.876Z,2.53
2019-04-29T22:07:58.805Z,0.43
2019-04-29T22:10:29.111Z,2.37
2019-04-29T22:13:02.217Z,1.07
2019-04-29T22:15:37.297Z,1.90
2019-04-29T22:18:07.253Z,1.30
2019-04-29T22:20:37.507Z,2.07
2019-04-29T22:23:08.487Z,1.23
2019-04-29T22:25:36.791Z,1.57
2019-04-29T22:28:10.735Z,1.70
2019-04-29T22:30:39.663Z,0.63
2019-04-29T22:33:09.340Z,0.60
2019-04-29T22:35:40.823Z,0.70
2019-04-29T22:38:12.576Z,0.93
2019-04-29T22:40:42.951Z,1.57
2019-04-29T22:43:27.651Z,3.23
2019-04-29T22:45:57.429Z,2.33
2019-04-29T22:48:27.224Z,1.17
2019-04-29T22:50:56.903Z,1.97
2019-04-29T22:53:26.660Z,1.33
2019-04-29T22:55:56.653Z,0.43
2019-04-29T22:58:26.698Z,0.73
2019-04-29T23:00:56.495Z,0.93
2019-04-29T23:03:26.202Z,0.63
2019-04-29T23:06:00.062Z,0.50
2019-04-29T23:08:29.804Z,0.83
2019-04-29T23:10:59.885Z,0.60
2019-04-29T23:13:31.098Z,1.00
2019-04-29T23:16:02.211Z,0.70
2019-04-29T23:18:40.944Z,0.70
2019-04-29T23:21:22.176Z,0.87
2019-04-29T23:23:59.657Z,1.43
2019-04-29T23:26:29.376Z,0.77
2019-04-29T23:28:59.429Z,1.63
2019-04-29T23:31:30.489Z,0.87
2019-04-29T23:34:00.132Z,0.80
2019-04-29T23:36:29.916Z,0.40
2019-04-29T23:38:59.736Z,1.20
2019-04-29T23:41:32.973Z,0.60
2019-04-29T23:44:05.152Z,1.10
2019-04-29T23:46:34.231Z,0.60
2019-04-29T23:49:06.492Z,1.13
2019-04-29T23:51:37.730Z,0.50
2019-04-29T23:54:08.023Z,1.13
2019-04-29T23:56:51.269Z,0.60
2019-04-29T23:59:26.144Z,2.00
